createdAt,value
2023-05-21T00:01:11.434Z,16.30
2023-05-21T00:03:42.206Z,16.30
2023-05-21T00:06:15.385Z,16.20
2023-05-21T00:08:42.857Z,16.20
2023-05-21T00:11:11.685Z,16.20
2023-05-21T00:13:40.603Z,16.20
2023-05-21T00:16:11.023Z,16.20
2023-05-21T00:18:40.320Z,16.20
2023-05-21T00:21:12.167Z,16.20
2023-05-21T00:23:39.679Z,16.10
2023-05-21T00:26:06.331Z,16.10
2023-05-21T00:28:32.939Z,16.10
2023-05-21T00:30:59.553Z,16.10
2023-05-21T00:33:26.468Z,16.10
2023-05-21T00:35:53.192Z,16.00
2023-05-21T00:38:22.497Z,16.00
2023-05-21T00:40:51.457Z,16.00
2023-05-21T00:43:19.731Z,16.00
2023-05-21T00:45:55.168Z,16.00
2023-05-21T00:48:26.174Z,15.90
2023-05-21T00:50:54.612Z,15.90
2023-05-21T00:53:21.320Z,15.90
2023-05-21T00:55:53.502Z,15.90
2023-05-21T00:58:22.588Z,15.80
2023-05-21T01:00:54.669Z,15.80
2023-05-21T01:03:28.046Z,15.80
2023-05-21T01:06:00.585Z,15.70
2023-05-21T01:08:31.458Z,15.70
2023-05-21T01:11:06.786Z,15.70
2023-05-21T01:13:38.442Z,15.60
2023-05-21T01:16:09.237Z,15.60
2023-05-21T01:18:43.545Z,15.60
2023-05-21T01:21:11.064Z,15.60
2023-05-21T01:23:37.768Z,15.60
2023-05-21T01:26:04.402Z,15.50
2023-05-21T01:28:32.865Z,15.50
2023-05-21T01:31:13.602Z,15.50
2023-05-21T01:33:49.799Z,15.60
2023-05-21T01:36:27.110Z,15.50
2023-05-21T01:39:17.040Z,15.50
2023-05-21T01:41:46.710Z,15.60
2023-05-21T01:44:14.771Z,15.50
2023-05-21T01:46:43.516Z,15.50
2023-05-21T01:49:13.455Z,15.50
2023-05-21T01:51:40.909Z,15.50
2023-05-21T01:54:15.673Z,15.50
2023-05-21T01:56:45.968Z,15.50
2023-05-21T01:59:17.076Z,15.50
2023-05-21T02:01:46.370Z,15.50
2023-05-21T02:04:15.741Z,15.50
2023-05-21T02:06:42.615Z,15.50
2023-05-21T02:09:12.156Z,15.50
2023-05-21T02:11:41.158Z,15.50
2023-05-21T02:14:10.228Z,15.50
2023-05-21T02:16:42.228Z,15.60
2023-05-21T02:19:10.385Z,15.50
2023-05-21T02:21:40.098Z,15.60
2023-05-21T02:24:06.940Z,15.60
2023-05-21T02:26:33.546Z,15.60
2023-05-21T02:29:01.718Z,15.60
2023-05-21T02:31:37.828Z,15.60
2023-05-21T02:34:11.214Z,15.60
2023-05-21T02:36:41.475Z,15.60
2023-05-21T02:39:10.406Z,15.60
2023-05-21T02:41:38.022Z,15.60
2023-05-21T02:44:07.481Z,15.60
2023-05-21T02:46:36.531Z,15.70
2023-05-21T02:49:03.262Z,15.70
2023-05-21T02:51:30.576Z,15.70
2023-05-21T02:54:04.415Z,15.70
2023-05-21T02:56:40.461Z,15.80
2023-05-21T02:59:07.141Z,15.80
2023-05-21T03:01:42.362Z,15.80
2023-05-21T03:04:13.851Z,15.90
2023-05-21T03:06:42.040Z,15.90
2023-05-21T03:09:13.312Z,16.00
2023-05-21T03:11:42.466Z,15.90
2023-05-21T03:14:09.758Z,16.00
2023-05-21T03:16:40.654Z,16.00
2023-05-21T03:19:15.710Z,16.00
2023-05-21T03:21:50.786Z,16.00
2023-05-21T03:24:17.739Z,16.00
2023-05-21T03:26:46.991Z,16.00
2023-05-21T03:29:14.263Z,16.00
2023-05-21T03:31:47.098Z,16.00
2023-05-21T03:34:17.213Z,16.00
2023-05-21T03:36:43.881Z,16.00
2023-05-21T03:39:10.750Z,16.00
2023-05-21T03:41:38.251Z,16.10
2023-05-21T03:44:10.960Z,16.10
2023-05-21T03:46:49.941Z,16.10
2023-05-21T03:49:28.987Z,16.10
2023-05-21T03:52:04.661Z,16.10
2023-05-21T03:54:31.263Z,16.10
2023-05-21T03:57:07.461Z,16.00
2023-05-21T03:59:38.671Z,16.10
2023-05-21T04:02:07.470Z,16.10
2023-05-21T04:04:38.185Z,16.10
2023-05-21T04:07:05.453Z,16.10
2023-05-21T04:09:36.599Z,16.10
2023-05-21T04:12:05.734Z,16.10
2023-05-21T04:14:33.263Z,16.10
2023-05-21T04:17:02.095Z,16.10
2023-05-21T04:19:28.744Z,16.10
2023-05-21T04:21:56.024Z,16.20
2023-05-21T04:24:23.431Z,16.20
2023-05-21T04:27:12.149Z,16.20
2023-05-21T04:29:44.294Z,16.20
2023-05-21T04:32:15.081Z,16.20
2023-05-21T04:34:44.148Z,16.20
2023-05-21T04:37:13.061Z,16.30
2023-05-21T04:39:42.296Z,16.30
2023-05-21T04:42:11.778Z,16.30
2023-05-21T04:44:40.260Z,16.30
2023-05-21T04:47:07.800Z,16.40
2023-05-21T04:49:35.979Z,16.40
2023-05-21T04:52:05.657Z,16.50
2023-05-21T04:54:34.476Z,16.50
2023-05-21T04:57:01.121Z,16.50
2023-05-21T04:59:30.686Z,16.60
2023-05-21T05:01:57.511Z,16.60
2023-05-21T05:04:26.977Z,16.70
2023-05-21T05:06:55.938Z,16.70
2023-05-21T05:09:32.816Z,16.70
2023-05-21T05:12:01.655Z,16.80
2023-05-21T05:14:28.987Z,16.80
2023-05-21T05:17:02.121Z,16.80
2023-05-21T05:19:30.487Z,16.90
2023-05-21T05:21:57.605Z,16.90
2023-05-21T05:24:26.787Z,16.90
2023-05-21T05:26:56.089Z,16.90
2023-05-21T05:29:22.793Z,16.90
2023-05-21T05:31:49.636Z,17.00
2023-05-21T05:34:17.697Z,17.00
2023-05-21T05:36:44.373Z,17.00
2023-05-21T05:39:11.216Z,17.10
2023-05-21T05:41:38.770Z,17.10
2023-05-21T05:44:05.975Z,17.10
2023-05-21T05:46:36.354Z,17.20
2023-05-21T05:49:09.840Z,17.20
2023-05-21T05:51:37.176Z,17.20
2023-05-21T05:54:06.600Z,17.20
2023-05-21T05:56:35.974Z,17.30
2023-05-21T05:59:04.449Z,17.30
2023-05-21T06:01:34.274Z,17.30
2023-05-21T06:04:11.553Z,17.30
2023-05-21T06:06:46.612Z,17.40
2023-05-21T06:09:16.241Z,17.40
2023-05-21T06:11:48.565Z,17.50
2023-05-21T06:14:15.465Z,17.60
2023-05-21T06:16:43.881Z,17.60
2023-05-21T06:19:12.140Z,17.70
2023-05-21T06:21:42.448Z,17.70
2023-05-21T06:24:11.124Z,17.80
2023-05-21T06:26:43.022Z,17.80
2023-05-21T06:29:15.513Z,17.90
2023-05-21T06:31:46.200Z,18.00
2023-05-21T06:34:12.920Z,18.10
2023-05-21T06:36:42.040Z,18.20
2023-05-21T06:39:08.763Z,18.30
2023-05-21T06:41:35.766Z,18.40
2023-05-21T06:44:19.566Z,18.40
2023-05-21T06:47:01.925Z,18.50
2023-05-21T06:49:28.590Z,18.60
2023-05-21T06:51:55.282Z,18.60
2023-05-21T06:54:21.964Z,18.70
2023-05-21T06:56:52.219Z,18.70
2023-05-21T06:59:18.913Z,18.70
2023-05-21T07:01:45.788Z,18.80
2023-05-21T07:04:15.867Z,18.80
2023-05-21T07:06:44.056Z,18.80
2023-05-21T07:09:11.830Z,18.80
2023-05-21T07:11:39.051Z,18.90
2023-05-21T07:14:08.929Z,18.90
2023-05-21T07:16:36.609Z,19.00
2023-05-21T07:19:03.422Z,19.00
2023-05-21T07:21:30.593Z,19.10
2023-05-21T07:23:57.336Z,19.10
2023-05-21T07:26:24.007Z,19.10
2023-05-21T07:28:50.697Z,19.20
2023-05-21T07:31:17.824Z,19.20
2023-05-21T07:33:47.773Z,19.20
2023-05-21T07:36:18.390Z,19.30
2023-05-21T07:38:48.522Z,19.20
2023-05-21T07:41:17.110Z,19.30
2023-05-21T07:43:46.574Z,19.30
2023-05-21T07:46:14.250Z,19.30
2023-05-21T07:48:43.631Z,19.30
2023-05-21T07:51:11.490Z,19.30
2023-05-21T07:53:38.313Z,19.30
2023-05-21T07:56:08.970Z,19.20
2023-05-21T07:58:35.975Z,19.30
2023-05-21T08:01:02.918Z,19.20
2023-05-21T08:03:30.875Z,19.30
2023-05-21T08:05:57.789Z,19.20
2023-05-21T08:08:25.916Z,19.30
2023-05-21T08:10:55.321Z,19.30
2023-05-21T08:13:24.922Z,19.30
2023-05-21T08:15:53.332Z,19.30
2023-05-21T08:18:23.547Z,19.40
2023-05-21T08:20:51.582Z,19.40
2023-05-21T08:23:19.886Z,19.40
2023-05-21T08:25:50.927Z,19.40
2023-05-21T08:28:17.629Z,19.50
2023-05-21T08:30:44.262Z,19.50
2023-05-21T08:33:19.504Z,19.50
2023-05-21T08:35:50.070Z,19.60
2023-05-21T08:38:32.655Z,19.70
2023-05-21T08:41:13.897Z,19.70
2023-05-21T08:43:49.863Z,19.80
2023-05-21T08:46:21.594Z,19.80
2023-05-21T08:48:50.209Z,19.90
2023-05-21T08:51:22.213Z,19.90
2023-05-21T08:53:53.389Z,20.00
2023-05-21T08:56:30.129Z,20.10
2023-05-21T08:58:58.839Z,20.10
2023-05-21T09:01:34.416Z,20.10
2023-05-21T09:04:21.391Z,20.20
2023-05-21T09:06:52.088Z,20.20
2023-05-21T09:09:34.072Z,20.30
2023-05-21T09:12:01.550Z,20.40
2023-05-21T09:14:29.225Z,20.40
2023-05-21T09:17:08.011Z,20.50
2023-05-21T09:19:35.589Z,20.60
2023-05-21T09:22:03.737Z,20.70
2023-05-21T09:24:34.444Z,20.80
2023-05-21T09:27:06.297Z,20.90
2023-05-21T09:29:34.428Z,21.00
2023-05-21T09:32:07.490Z,21.10
2023-05-21T09:34:36.956Z,21.20
2023-05-21T09:37:06.543Z,21.40
2023-05-21T09:39:35.901Z,21.50
2023-05-21T09:42:04.428Z,21.70
2023-05-21T09:44:32.517Z,21.80
2023-05-21T09:46:59.582Z,21.90
2023-05-21T09:49:26.771Z,22.00
2023-05-21T09:51:58.697Z,22.10
2023-05-21T09:54:30.750Z,22.20
2023-05-21T09:56:57.415Z,22.30
2023-05-21T09:59:35.153Z,22.40
2023-05-21T10:02:02.474Z,22.50
2023-05-21T10:04:31.458Z,22.60
2023-05-21T10:06:59.676Z,22.70
2023-05-21T10:09:28.266Z,22.80
2023-05-21T10:11:54.998Z,22.90
2023-05-21T10:14:25.343Z,23.10
2023-05-21T10:16:54.532Z,23.20
2023-05-21T10:19:24.994Z,23.20
2023-05-21T10:21:53.163Z,23.30
2023-05-21T10:24:20.398Z,23.40
2023-05-21T10:26:47.399Z,23.40
2023-05-21T10:29:17.287Z,23.40
2023-05-21T10:31:50.266Z,23.50
2023-05-21T10:34:17.387Z,23.60
2023-05-21T10:36:48.015Z,23.70
2023-05-21T10:39:15.851Z,23.80
2023-05-21T10:41:59.212Z,23.80
2023-05-21T10:44:54.333Z,23.80
2023-05-21T10:47:52.899Z,23.80
2023-05-21T10:50:45.023Z,23.60
2023-05-21T10:53:19.802Z,23.50
2023-05-21T10:56:22.830Z,23.40
2023-05-21T10:59:28.118Z,23.40
2023-05-21T11:01:56.813Z,23.30
2023-05-21T11:04:26.838Z,23.20
2023-05-21T11:06:54.389Z,23.20
2023-05-21T11:09:21.019Z,23.20
2023-05-21T11:11:52.551Z,23.20
2023-05-21T11:14:40.654Z,23.20
2023-05-21T11:17:16.315Z,23.20
2023-05-21T11:19:46.973Z,23.20
2023-05-21T11:22:23.722Z,23.20
2023-05-21T11:24:51.877Z,23.30
2023-05-21T11:27:40.852Z,23.30
2023-05-21T11:30:18.701Z,23.40
2023-05-21T11:33:08.206Z,23.40
2023-05-21T11:35:54.168Z,23.50
2023-05-21T11:38:20.940Z,23.50
2023-05-21T11:40:55.455Z,23.60
2023-05-21T11:43:22.436Z,23.70
2023-05-21T11:45:52.094Z,23.80
2023-05-21T11:48:20.935Z,23.90
2023-05-21T11:50:47.638Z,23.90
2023-05-21T11:53:15.346Z,23.90
2023-05-21T11:55:43.448Z,23.90
2023-05-21T11:58:13.524Z,24.10
2023-05-21T12:00:41.013Z,24.10
2023-05-21T12:03:09.599Z,24.10
2023-05-21T12:05:49.022Z,24.10
2023-05-21T12:08:25.189Z,24.20
2023-05-21T12:11:03.184Z,24.30
2023-05-21T12:13:30.117Z,24.30
2023-05-21T12:15:56.793Z,24.40
2023-05-21T12:18:23.557Z,24.50
2023-05-21T12:20:52.130Z,24.60
2023-05-21T12:23:25.565Z,24.70
2023-05-21T12:25:53.621Z,24.70
2023-05-21T12:28:24.617Z,24.80
2023-05-21T12:30:51.387Z,25.00
2023-05-21T12:33:18.874Z,25.10
2023-05-21T12:35:49.563Z,25.20
2023-05-21T12:38:16.412Z,25.40
2023-05-21T12:40:45.199Z,25.60
2023-05-21T12:43:12.076Z,25.70
2023-05-21T12:45:41.897Z,25.90
2023-05-21T12:48:08.875Z,26.10
2023-05-21T12:50:42.047Z,26.20
2023-05-21T12:53:10.915Z,26.40
2023-05-21T12:55:37.782Z,26.50
2023-05-21T12:58:07.652Z,26.60
2023-05-21T13:00:34.699Z,26.70
2023-05-21T13:03:04.207Z,26.90
2023-05-21T13:05:31.135Z,27.00
2023-05-21T13:07:57.764Z,27.20
2023-05-21T13:10:24.461Z,27.40
2023-05-21T13:12:51.074Z,27.50
2023-05-21T13:15:18.121Z,27.70
2023-05-21T13:17:44.798Z,28.00
2023-05-21T13:20:21.240Z,28.30
2023-05-21T13:22:51.445Z,28.50
2023-05-21T13:25:20.861Z,28.80
2023-05-21T13:27:48.843Z,29.10
2023-05-21T13:30:15.542Z,29.50
2023-05-21T13:32:43.458Z,29.90
2023-05-21T13:35:11.729Z,30.50
2023-05-21T13:37:40.131Z,31.20
2023-05-21T13:40:11.910Z,31.90
2023-05-21T13:42:38.668Z,32.80
2023-05-21T13:45:06.687Z,33.40
2023-05-21T13:47:34.626Z,34.50
2023-05-21T13:50:01.990Z,35.40
2023-05-21T13:52:32.198Z,36.30
2023-05-21T13:54:58.796Z,37.10
2023-05-21T13:57:30.519Z,37.80
2023-05-21T13:59:58.194Z,38.40
2023-05-21T14:02:25.219Z,39.00
2023-05-21T14:04:51.987Z,39.50
2023-05-21T14:07:19.559Z,40.10
2023-05-21T14:09:47.436Z,40.60
2023-05-21T14:12:14.373Z,41.20
2023-05-21T14:14:44.993Z,41.80
2023-05-21T14:17:11.717Z,42.20
2023-05-21T14:19:38.333Z,42.40
2023-05-21T14:22:05.341Z,42.60
2023-05-21T14:24:32.024Z,42.70
2023-05-21T14:27:00.965Z,42.80
2023-05-21T14:29:27.583Z,42.90
2023-05-21T14:31:54.329Z,43.20
2023-05-21T14:34:21.015Z,43.40
2023-05-21T14:36:47.695Z,43.70
2023-05-21T14:39:14.489Z,43.90
2023-05-21T14:41:41.196Z,44.00
2023-05-21T14:44:08.145Z,44.10
2023-05-21T14:46:34.886Z,44.40
2023-05-21T14:49:01.617Z,44.70
2023-05-21T14:51:28.248Z,44.80
2023-05-21T14:53:57.144Z,44.90
2023-05-21T14:56:27.100Z,44.90
2023-05-21T14:58:53.954Z,44.80
2023-05-21T15:01:23.197Z,44.60
2023-05-21T15:03:50.174Z,44.20
2023-05-21T15:06:17.052Z,44.00
2023-05-21T15:08:43.736Z,43.80
2023-05-21T15:11:10.423Z,43.40
2023-05-21T15:13:39.960Z,43.10
2023-05-21T15:16:06.713Z,42.70
2023-05-21T15:18:33.528Z,42.30
2023-05-21T15:21:00.318Z,41.90
2023-05-21T15:23:26.968Z,41.50
2023-05-21T15:25:53.626Z,41.00
2023-05-21T15:28:20.533Z,40.60
2023-05-21T15:30:47.157Z,40.30
2023-05-21T15:33:13.958Z,39.90
2023-05-21T15:35:41.056Z,39.50
2023-05-21T15:38:07.928Z,39.30
2023-05-21T15:40:34.660Z,39.00
2023-05-21T15:43:01.262Z,38.70
2023-05-21T15:45:27.965Z,38.40
2023-05-21T15:47:54.719Z,38.20
2023-05-21T15:50:21.433Z,38.10
2023-05-21T15:52:48.714Z,38.00
2023-05-21T15:55:16.494Z,38.00
2023-05-21T15:57:45.649Z,38.10
2023-05-21T16:00:12.955Z,38.10
2023-05-21T16:02:46.545Z,38.10
2023-05-21T16:05:20.308Z,38.30
2023-05-21T16:07:51.412Z,38.60
2023-05-21T16:10:21.286Z,38.80
2023-05-21T16:12:52.706Z,38.90
2023-05-21T16:15:22.268Z,38.90
2023-05-21T16:17:52.436Z,38.70
2023-05-21T16:20:22.228Z,38.60
2023-05-21T16:22:49.633Z,38.50
2023-05-21T16:25:16.394Z,38.30
2023-05-21T16:27:43.047Z,38.20
2023-05-21T16:30:11.955Z,38.00
2023-05-21T16:32:55.309Z,37.90
2023-05-21T16:35:25.606Z,37.60
2023-05-21T16:37:55.473Z,37.30
2023-05-21T16:40:22.258Z,37.20
2023-05-21T16:42:52.853Z,37.10
2023-05-21T16:45:22.079Z,36.80
2023-05-21T16:47:52.103Z,36.70
2023-05-21T16:50:24.603Z,36.40
2023-05-21T16:52:53.758Z,36.20
2023-05-21T16:55:20.376Z,36.00
2023-05-21T16:57:49.702Z,35.60
2023-05-21T17:00:16.572Z,35.40
2023-05-21T17:02:43.222Z,35.20
2023-05-21T17:05:19.809Z,35.00
2023-05-21T17:08:09.572Z,34.70
2023-05-21T17:10:36.278Z,34.50
2023-05-21T17:13:20.631Z,34.30
2023-05-21T17:15:48.835Z,34.20
2023-05-21T17:18:18.163Z,34.30
2023-05-21T17:20:46.144Z,34.40
2023-05-21T17:23:17.184Z,34.60
2023-05-21T17:25:50.122Z,34.80
2023-05-21T17:28:16.872Z,34.80
2023-05-21T17:30:43.484Z,34.80
2023-05-21T17:33:10.650Z,34.90
2023-05-21T17:35:40.771Z,34.80
2023-05-21T17:38:09.785Z,34.90
2023-05-21T17:40:43.124Z,34.80
2023-05-21T17:43:12.087Z,34.80
2023-05-21T17:45:41.306Z,34.60
2023-05-21T17:48:12.668Z,34.50
2023-05-21T17:50:39.341Z,34.40
2023-05-21T17:53:05.926Z,34.30
2023-05-21T17:55:40.563Z,34.20
2023-05-21T17:58:09.694Z,34.10
2023-05-21T18:00:36.694Z,34.10
2023-05-21T18:03:05.383Z,34.00
2023-05-21T18:05:34.321Z,33.80
2023-05-21T18:08:01.412Z,33.70
2023-05-21T18:10:30.411Z,33.50
2023-05-21T18:13:01.078Z,33.30
2023-05-21T18:15:27.685Z,33.00
2023-05-21T18:17:54.321Z,32.80
2023-05-21T18:20:21.172Z,32.50
2023-05-21T18:22:50.602Z,32.20
2023-05-21T18:25:23.642Z,31.90
2023-05-21T18:27:52.658Z,31.60
2023-05-21T18:30:37.098Z,31.30
2023-05-21T18:33:06.896Z,31.10
2023-05-21T18:35:35.875Z,30.80
2023-05-21T18:38:12.219Z,30.60
2023-05-21T18:40:39.206Z,30.40
2023-05-21T18:43:10.695Z,30.20
2023-05-21T18:45:39.165Z,29.90
2023-05-21T18:48:11.649Z,29.80
2023-05-21T18:50:44.094Z,29.60
2023-05-21T18:53:13.990Z,29.40
2023-05-21T18:55:40.613Z,29.30
2023-05-21T18:58:10.985Z,29.10
2023-05-21T19:00:42.230Z,28.90
2023-05-21T19:03:11.387Z,28.80
2023-05-21T19:05:42.188Z,28.60
2023-05-21T19:08:12.703Z,28.50
2023-05-21T19:10:41.718Z,28.30
2023-05-21T19:13:10.809Z,28.10
2023-05-21T19:15:39.998Z,28.00
2023-05-21T19:18:08.382Z,27.80
2023-05-21T19:20:36.514Z,27.70
2023-05-21T19:23:04.301Z,27.50
2023-05-21T19:25:33.613Z,27.30
2023-05-21T19:28:04.162Z,27.20
2023-05-21T19:30:33.640Z,27.10
2023-05-21T19:33:03.443Z,27.00
2023-05-21T19:35:30.506Z,26.90
2023-05-21T19:37:59.665Z,26.70
2023-05-21T19:40:30.545Z,26.60
2023-05-21T19:42:57.206Z,26.50
2023-05-21T19:45:26.346Z,26.40
2023-05-21T19:47:53.038Z,26.30
2023-05-21T19:50:22.145Z,26.20
2023-05-21T19:52:52.028Z,26.10
2023-05-21T19:55:28.191Z,26.10
2023-05-21T19:57:57.674Z,26.00
2023-05-21T20:00:27.199Z,25.90
2023-05-21T20:02:55.102Z,25.80
2023-05-21T20:05:26.797Z,25.70
2023-05-21T20:07:53.475Z,25.60
2023-05-21T20:10:20.725Z,25.60
2023-05-21T20:12:52.744Z,25.50
2023-05-21T20:15:26.705Z,25.30
2023-05-21T20:17:57.363Z,25.30
2023-05-21T20:20:24.051Z,25.10
2023-05-21T20:22:50.886Z,25.00
2023-05-21T20:25:17.583Z,24.90
2023-05-21T20:27:49.101Z,24.80
2023-05-21T20:30:15.947Z,24.70
2023-05-21T20:32:50.205Z,24.70
2023-05-21T20:35:19.688Z,24.50
2023-05-21T20:37:47.214Z,24.50
2023-05-21T20:40:14.952Z,24.40
2023-05-21T20:42:44.758Z,24.20
2023-05-21T20:45:12.884Z,24.20
2023-05-21T20:47:39.736Z,24.10
2023-05-21T20:50:11.138Z,24.00
2023-05-21T20:52:44.884Z,23.90
2023-05-21T20:55:14.301Z,23.80
2023-05-21T20:57:42.514Z,23.70
2023-05-21T21:00:13.270Z,23.70
2023-05-21T21:02:40.212Z,23.60
2023-05-21T21:05:12.072Z,23.50
2023-05-21T21:07:41.917Z,23.40
2023-05-21T21:10:12.464Z,23.40
2023-05-21T21:12:51.630Z,23.30
2023-05-21T21:15:20.479Z,23.20
2023-05-21T21:17:49.712Z,23.10
2023-05-21T21:20:18.405Z,23.00
2023-05-21T21:22:45.518Z,23.00
2023-05-21T21:25:15.349Z,22.90
2023-05-21T21:27:46.732Z,22.90
2023-05-21T21:30:13.554Z,22.80
2023-05-21T21:32:47.860Z,22.70
2023-05-21T21:35:20.279Z,22.70
2023-05-21T21:37:52.435Z,22.60
2023-05-21T21:40:22.890Z,22.50
2023-05-21T21:42:51.130Z,22.50
2023-05-21T21:45:18.886Z,22.50
2023-05-21T21:47:49.626Z,22.40
2023-05-21T21:50:16.327Z,22.40
2023-05-21T21:52:50.191Z,22.40
2023-05-21T21:55:20.132Z,22.30
2023-05-21T21:57:46.810Z,22.40
2023-05-21T22:00:22.027Z,22.30
2023-05-21T22:02:53.813Z,22.20
2023-05-21T22:05:31.162Z,22.20
2023-05-21T22:08:00.265Z,22.20
2023-05-21T22:10:29.238Z,22.20
2023-05-21T22:12:58.177Z,22.30
2023-05-21T22:15:31.935Z,22.20
2023-05-21T22:18:02.432Z,22.20
2023-05-21T22:20:29.332Z,22.20
2023-05-21T22:22:59.753Z,22.20
2023-05-21T22:25:28.614Z,22.20
2023-05-21T22:27:57.423Z,22.20
2023-05-21T22:30:24.210Z,22.10
2023-05-21T22:32:50.846Z,22.10
2023-05-21T22:35:19.855Z,22.10
2023-05-21T22:37:47.753Z,22.10
2023-05-21T22:40:17.348Z,22.10
2023-05-21T22:42:45.699Z,22.10
2023-05-21T22:45:21.451Z,22.10
2023-05-21T22:47:48.222Z,22.00
2023-05-21T22:50:16.535Z,22.00
2023-05-21T22:52:45.758Z,22.00
2023-05-21T22:55:14.844Z,22.00
2023-05-21T22:57:46.710Z,22.00
2023-05-21T23:00:14.313Z,22.00
2023-05-21T23:02:42.293Z,21.90
2023-05-21T23:05:09.137Z,21.90
2023-05-21T23:07:35.794Z,21.80
2023-05-21T23:10:02.700Z,21.90
2023-05-21T23:12:32.178Z,21.80
2023-05-21T23:15:06.105Z,21.80
2023-05-21T23:17:33.081Z,21.70
2023-05-21T23:20:05.698Z,21.70
2023-05-21T23:22:39.739Z,21.70
2023-05-21T23:25:17.007Z,21.80
2023-05-21T23:27:46.803Z,21.70
2023-05-21T23:30:15.853Z,21.70
2023-05-21T23:32:47.081Z,21.80
2023-05-21T23:35:16.107Z,21.70
2023-05-21T23:37:45.119Z,21.70
2023-05-21T23:40:18.234Z,21.80
2023-05-21T23:42:47.303Z,21.70
2023-05-21T23:45:16.426Z,21.70
2023-05-21T23:47:43.178Z,21.70
2023-05-21T23:50:12.188Z,21.70
2023-05-21T23:52:42.674Z,21.70
2023-05-21T23:55:12.366Z,21.60
2023-05-21T23:57:38.969Z,21.60
